»·PEaware :: N123SX L70-KONT

N123SX :: L70-KONT

FLIGHT INFORMATION

Flight Status: Arrived
Operator: Privately registered:
United States
More flights under this callsign
Pilot: Shawn G. (7208)
Aircraft: Unknown
(PIPA)
More flights by this aircraft type
Origin: L70 Agua Dulce
United States
Destination: KONT Ontario Intl
United States
More flights between these airports :: More routes between these airports
Route:
File this flight plan on PilotEdge
Remarks:
Altitude:
(Current/Filed)
5,500ft
Speed:
(Current/Filed)
0kts
Departed: 25-May-18 05:33 PM
Arrived: 25-May-18 06:08 PM
Distance/Time
Traveled:
44nm/0:35
Distance/Time
To Go:
Arrived

Flight Plot

Page will automatically refresh every two minutes.

Flight plan parsing failed; only flown route is shown


Map Options




Map Legend


Flown Route
Filed Route
Departure Airport
Arrival Airport
Navaid (VOR, NDB)
Fix

Horizontal Profiles

Position Reports

Time Latitude Longitude Heading Altitude Ground
Speed
25-May-18 17:22 34.507769 -118.307117 106 2663ft 0kts
25-May-18 17:23 34.507769 -118.307117 106 2663ft 0kts
25-May-18 17:24 34.507769 -118.307118 106 2663ft 0kts
25-May-18 17:25 34.507769 -118.307117 106 2663ft 0kts
25-May-18 17:26 34.507769 -118.307118 106 2663ft 0kts
25-May-18 17:27 34.507769 -118.307117 106 2663ft 0kts
25-May-18 17:28 34.507769 -118.307117 106 2663ft 0kts
25-May-18 17:29 34.507769 -118.307117 106 2663ft 0kts
25-May-18 17:30 34.507769 -118.307118 106 2663ft 0kts
25-May-18 17:31 34.507769 -118.307118 106 2663ft 0kts
25-May-18 17:32 34.507297 -118.307058 235 2663ft 17kts
25-May-18 17:33 34.500248 -118.318390 231 2944ft 95kts
25-May-18 17:34 34.485556 -118.341563 232 4851ft 88kts
25-May-18 17:35 34.472715 -118.375241 287 5477ft 169kts
25-May-18 17:36 34.517440 -118.363295 49 5471ft 210kts
25-May-18 17:37 34.507640 -118.302196 118 5472ft 191kts
25-May-18 17:38 34.489416 -118.241838 115 5473ft 190kts
25-May-18 17:39 34.471379 -118.181591 115 5474ft 190kts
25-May-18 17:40 34.469782 -118.119613 82 5475ft 198kts
25-May-18 17:41 34.480511 -118.054237 82 5465ft 192kts
25-May-18 17:42 34.490621 -117.993481 83 5457ft 180kts
25-May-18 17:43 34.480706 -117.935757 106 5423ft 174kts
25-May-18 17:44 34.469164 -117.878915 106 5417ft 173kts
25-May-18 17:45 34.457693 -117.822416 106 5421ft 173kts
25-May-18 17:46 34.446221 -117.766044 106 5417ft 172kts
25-May-18 17:47 34.434864 -117.709689 106 5409ft 172kts
25-May-18 17:48 34.423546 -117.653667 107 5403ft 166kts
25-May-18 17:49 34.413377 -117.602714 104 5413ft 149kts
25-May-18 17:50 34.404308 -117.561551 107 5444ft 111kts
25-May-18 17:51 34.395782 -117.523983 105 5450ft 120kts
25-May-18 17:52 34.393316 -117.483631 40 5454ft 134kts
25-May-18 17:53 34.415654 -117.503760 281 5451ft 133kts
25-May-18 17:54 34.422069 -117.548694 271 5448ft 138kts
25-May-18 17:55 34.404193 -117.578233 156 5443ft 151kts
25-May-18 17:56 34.373010 -117.543493 140 5449ft 153kts
25-May-18 17:57 34.341257 -117.509269 140 5446ft 154kts
25-May-18 17:58 34.309379 -117.474711 141 5448ft 154kts
25-May-18 17:59 34.270102 -117.474847 177 5449ft 149kts
25-May-18 18:00 34.229194 -117.467527 174 5449ft 150kts
25-May-18 18:01 34.184592 -117.459123 174 4357ft 181kts
25-May-18 18:02 34.140575 -117.451851 187 2847ft 116kts
25-May-18 18:03 34.102914 -117.453515 187 2485ft 182kts
25-May-18 18:04 34.066901 -117.471408 222 2426ft 128kts
25-May-18 18:05 34.053555 -117.508055 278 1853ft 153kts
25-May-18 18:06 34.054835 -117.546149 269 1393ft 118kts
25-May-18 18:07 34.054900 -117.573344 267 1132ft 83kts
25-May-18 18:08 34.054937 -117.592769 256 945ft 19kts
25-May-18 18:09 34.053875 -117.596464 270 945ft 10kts
25-May-18 18:10 34.053849 -117.601248 266 945ft 14kts
25-May-18 18:11 34.051848 -117.603257 145 945ft 11kts
25-May-18 18:12 34.052058 -117.602972 2 945ft 0kts
25-May-18 18:13 34.052058 -117.602972 2 945ft 0kts
25-May-18 18:14 34.052058 -117.602972 2 945ft 0kts
25-May-18 18:15 34.052058 -117.602972 2 945ft 0kts
25-May-18 18:16 34.052058 -117.602972 2 945ft 0kts
25-May-18 18:17 34.052058 -117.602972 2 945ft 0kts
25-May-18 18:18 34.052058 -117.602972 2 945ft 0kts
25-May-18 18:19 34.052058 -117.602972 2 945ft 0kts
25-May-18 18:20 34.052058 -117.602972 2 945ft 0kts

Navigation Log

Ident Type
Flight plan parsing failed, navigation log unavailable